Time;durP1;ratioP1;P1;durP2;ratioP2;P2;SDS_P1;SDS_P2;PMS_P1;PMS_P2;Temp;Humidity;BMP_temperature;BMP_pressure;BME280_temperature;BME280_humidity;BME280_pressure;Samples;Min_cycle;Max_cycle;Signal;HPM_P1;HPM_P2
2022/05/08 00:00:30;;;;;;;28.00;25.40;;;;;;;13.05;100.00;99915.03;4776934;29;20213;-92
2022/05/08 00:02:58;;;;;;;26.90;24.57;;;;;;;13.06;100.00;99905.09;4808410;29;20211;-92
2022/05/08 00:05:26;;;;;;;26.77;24.37;;;;;;;13.04;100.00;99907.19;4792436;29;20197;-91
2022/05/08 00:07:53;;;;;;;26.97;24.47;;;;;;;13.03;100.00;99908.22;4792083;29;20216;-92
2022/05/08 00:10:20;;;;;;;26.33;23.93;;;;;;;13.03;100.00;99914.41;4777384;29;20223;-92
2022/05/08 00:12:47;;;;;;;28.13;25.63;;;;;;;13.01;100.00;99911.16;4777225;29;20229;-92
2022/05/08 00:15:14;;;;;;;28.93;26.33;;;;;;;13.03;100.00;99906.34;4777314;29;20202;-91
2022/05/08 00:17:41;;;;;;;28.73;26.17;;;;;;;13.02;100.00;99911.94;4762553;29;20262;-90
2022/05/08 00:20:08;;;;;;;28.63;25.93;;;;;;;12.99;100.00;99901.66;4777057;29;20205;-92
2022/05/08 00:22:35;;;;;;;27.90;25.37;;;;;;;13.01;100.00;99902.25;4792052;29;20537;-92
2022/05/08 00:25:03;;;;;;;29.57;26.90;;;;;;;13.00;100.00;99896.06;4806670;29;20224;-92
2022/05/08 00:27:30;;;;;;;28.73;25.93;;;;;;;12.97;100.00;99891.13;4777025;29;20226;-92
2022/05/08 00:29:57;;;;;;;28.13;25.60;;;;;;;12.94;100.00;99877.31;4776733;29;20224;-91
2022/05/08 00:32:25;;;;;;;28.40;25.80;;;;;;;12.93;100.00;99875.66;4762625;29;20277;-92
2022/05/08 00:34:52;;;;;;;28.47;25.87;;;;;;;12.94;100.00;99878.13;4791969;29;20208;-91
2022/05/08 00:37:19;;;;;;;28.67;25.97;;;;;;;12.94;100.00;99874.63;4791686;29;20237;-92
2022/05/08 00:39:46;;;;;;;28.17;25.60;;;;;;;12.90;100.00;99868.06;4776646;29;20203;-91
2022/05/08 00:42:17;;;;;;;28.67;26.10;;;;;;;12.95;100.00;99874.41;4778347;29;20189;-92
2022/05/08 00:44:44;;;;;;;29.17;26.67;;;;;;;12.93;100.00;99865.75;4791358;29;20205;-92
2022/05/08 00:47:11;;;;;;;30.40;27.67;;;;;;;12.93;100.00;99859.53;4776403;29;20299;-89
2022/05/08 00:49:37;;;;;;;27.67;25.17;;;;;;;12.93;100.00;99865.75;4776535;29;20286;-91
2022/05/08 00:52:05;;;;;;;29.10;26.30;;;;;;;12.94;100.00;99870.06;4791292;29;20201;-92
2022/05/08 00:54:32;;;;;;;30.03;27.33;;;;;;;12.93;100.00;99864.91;4776811;29;20197;-92
2022/05/08 00:57:00;;;;;;;27.97;25.37;;;;;;;12.89;100.00;99867.25;4791599;29;20201;-92
2022/05/08 00:59:27;;;;;;;28.67;25.97;;;;;;;12.90;100.00;99862.69;4776592;29;20622;-91
2022/05/08 01:01:54;;;;;;;29.60;26.60;;;;;;;12.88;100.00;99865.59;4776262;29;20283;-91
2022/05/08 01:04:21;;;;;;;29.77;26.77;;;;;;;12.87;100.00;99864.00;4791144;29;20307;-91
2022/05/08 01:06:47;;;;;;;28.93;26.30;;;;;;;12.90;100.00;99860.00;4790900;29;20256;-91
2022/05/08 01:09:14;;;;;;;30.47;27.23;;;;;;;12.89;100.00;99861.03;4776185;29;20216;-91
2022/05/08 01:11:41;;;;;;;29.67;26.93;;;;;;;12.84;100.00;99861.72;4776401;29;20305;-91
2022/05/08 01:14:08;;;;;;;29.20;26.50;;;;;;;12.84;100.00;99856.34;4790889;29;20227;-90
2022/05/08 01:16:35;;;;;;;29.13;26.33;;;;;;;12.85;100.00;99859.88;4791216;29;20603;-91
2022/05/08 01:19:02;;;;;;;28.30;25.80;;;;;;;12.80;100.00;99861.38;4806201;29;20205;-91
2022/05/08 01:21:35;;;;;;;28.67;26.03;;;;;;;12.80;100.00;99868.63;4807030;29;20207;-91
2022/05/08 01:24:02;;;;;;;27.33;25.03;;;;;;;12.79;100.00;99858.91;4776179;29;20198;-91
2022/05/08 01:26:28;;;;;;;28.17;25.60;;;;;;;12.78;100.00;99854.59;4775727;29;20235;-92
2022/05/08 01:28:55;;;;;;;27.83;25.33;;;;;;;12.79;100.00;99864.28;4768864;29;20213;-90
2022/05/08 01:31:23;;;;;;;27.90;25.50;;;;;;;12.77;100.00;99859.16;4788138;29;20241;-91
2022/05/08 01:33:49;;;;;;;27.47;24.97;;;;;;;12.76;100.00;99862.06;4807029;29;20192;-92
2022/05/08 01:36:16;;;;;;;27.93;25.43;;;;;;;12.77;100.00;99861.03;4793617;29;20733;-92
2022/05/08 01:38:43;;;;;;;28.53;26.00;;;;;;;12.76;100.00;99857.50;4774431;29;20237;-91
2022/05/08 01:41:10;;;;;;;28.83;26.13;;;;;;;12.76;100.00;99868.25;4765765;29;20269;-88
2022/05/08 01:43:37;;;;;;;27.93;25.43;;;;;;;12.76;100.00;99856.69;4776030;29;20226;-92
2022/05/08 01:46:04;;;;;;;29.03;26.27;;;;;;;12.75;100.00;99863.94;4806670;29;20214;-92
2022/05/08 01:48:32;;;;;;;29.37;26.70;;;;;;;12.74;100.00;99861.47;4775811;29;20229;-91
2022/05/08 01:51:01;;;;;;;28.00;25.23;;;;;;;12.77;100.00;99866.41;4775769;29;20293;-92
2022/05/08 01:53:31;;;;;;;27.60;25.10;;;;;;;12.74;100.00;99867.66;4760872;29;20236;-91
2022/05/08 01:55:58;;;;;;;28.37;25.87;;;;;;;12.70;100.00;99865.66;4782537;29;20193;-90
2022/05/08 01:58:27;;;;;;;27.50;25.00;;;;;;;12.69;100.00;99864.03;4778747;29;20750;-91
2022/05/08 02:00:55;;;;;;;28.40;25.70;;;;;;;12.67;100.00;99864.25;4793974;29;20215;-90
2022/05/08 02:03:23;;;;;;;27.47;25.07;;;;;;;12.67;100.00;99864.25;4793477;29;20201;-91
2022/05/08 02:05:50;;;;;;;27.17;24.57;;;;;;;12.65;100.00;99866.34;4794132;29;20201;-91
2022/05/08 02:08:18;;;;;;;26.90;24.40;;;;;;;12.66;100.00;99864.47;4793723;29;20257;-91
2022/05/08 02:10:52;;;;;;;27.23;24.83;;;;;;;12.63;100.00;99862.25;4780543;29;20223;-90
2022/05/08 02:13:19;;;;;;;27.97;25.47;;;;;;;12.65;100.00;99866.34;4778458;29;20217;-90
2022/05/08 02:15:45;;;;;;;28.00;25.53;;;;;;;12.64;100.00;99862.03;4793901;29;20210;-92
2022/05/08 02:18:12;;;;;;;27.30;24.80;;;;;;;12.62;100.00;99865.97;4824671;29;20188;-91
2022/05/08 02:20:40;;;;;;;27.23;24.73;;;;;;;12.63;100.00;99862.25;4808954;29;20210;-91
2022/05/08 02:23:07;;;;;;;27.57;25.07;;;;;;;12.62;100.00;99865.97;4779943;29;20206;-90
2022/05/08 02:25:38;;;;;;;28.30;25.70;;;;;;;12.61;100.00;99865.16;4781900;29;20244;-91
2022/05/08 02:28:05;;;;;;;27.37;24.97;;;;;;;12.59;100.00;99869.13;4796976;29;20202;-90
2022/05/08 02:30:32;;;;;;;27.53;25.00;;;;;;;12.58;100.00;99868.31;4796940;29;20248;-91
2022/05/08 02:33:00;;;;;;;27.70;25.03;;;;;;;12.57;100.00;99865.84;4782223;29;20204;-91
2022/05/08 02:35:27;;;;;;;27.30;24.70;;;;;;;12.55;100.00;99865.25;4781967;29;20319;-90
2022/05/08 02:37:55;;;;;;;27.93;25.33;;;;;;;12.52;100.00;99861.13;4812170;29;20203;-90
2022/05/08 02:40:23;;;;;;;28.27;25.70;;;;;;;12.51;100.00;99867.56;4796949;29;20263;-91
2022/05/08 02:42:51;;;;;;;27.27;24.83;;;;;;;12.48;100.00;99876.06;4812032;29;20194;-90
2022/05/08 02:45:18;;;;;;;28.30;25.53;;;;;;;12.44;100.00;99869.53;4811840;29;20187;-90
2022/05/08 02:47:45;;;;;;;27.50;24.90;;;;;;;12.46;100.00;99875.47;4811680;29;20323;-90
2022/05/08 02:50:12;;;;;;;28.40;25.83;;;;;;;12.45;100.00;99868.47;4767005;29;20221;-90
2022/05/08 02:52:40;;;;;;;26.47;23.97;;;;;;;12.45;100.00;99879.22;4781875;29;20205;-91
2022/05/08 03:01:07;;;;;;;28.53;25.97;;;;;;;12.42;100.00;99884.22;4846050;24;20302;-89
2022/05/08 03:03:36;;;;;;;27.30;24.80;;;;;;;12.42;100.00;99881.53;4810967;29;20207;-89
2022/05/08 03:06:05;;;;;;;26.80;24.30;;;;;;;12.42;100.00;99881.53;4827079;29;20207;-90
2022/05/08 03:08:32;;;;;;;28.13;25.43;;;;;;;12.40;100.00;99881.75;4796207;29;20208;-91
2022/05/08 03:14:01;;;;;;;26.83;24.23;;;;;;;12.36;100.00;99884.06;4836704;24;20331;-90
2022/05/08 03:16:28;;;;;;;28.67;26.10;;;;;;;12.36;100.00;99880.59;4811340;29;20196;-90
2022/05/08 03:18:55;;;;;;;28.30;25.73;;;;;;;12.37;100.00;99884.88;4796046;29;20203;-90
2022/05/08 03:21:23;;;;;;;28.67;26.07;;;;;;;12.37;100.00;99890.25;4810910;29;20232;-90
2022/05/08 03:23:51;;;;;;;27.70;25.17;;;;;;;12.37;100.00;99890.25;4796010;29;20406;-91
2022/05/08 03:26:20;;;;;;;27.40;24.90;;;;;;;12.36;100.00;99889.44;4781415;29;20665;-91
2022/05/08 03:29:18;;;;;;;26.90;24.30;;;;;;;12.36;100.00;99894.00;4853506;24;20279;-90
2022/05/08 03:31:46;;;;;;;26.77;24.23;;;;;;;12.36;100.00;99899.38;4811230;29;20254;-90
2022/05/08 03:34:14;;;;;;;27.70;25.10;;;;;;;12.34;100.00;99890.72;4795121;29;20902;-90
2022/05/08 03:36:41;;;;;;;28.07;25.37;;;;;;;12.34;100.00;99894.22;4795277;29;20235;-90
2022/05/08 03:39:08;;;;;;;27.20;24.80;;;;;;;12.34;100.00;99894.22;4795958;29;20652;-90
2022/05/08 03:41:34;;;;;;;26.63;24.23;;;;;;;12.36;100.00;99900.19;4795869;29;20280;-91
2022/05/08 03:44:01;;;;;;;28.57;25.97;;;;;;;12.38;100.00;99891.91;4810491;29;20279;-91
2022/05/08 03:46:33;;;;;;;28.10;25.50;;;;;;;12.41;100.00;99896.03;4811231;29;20910;-90
2022/05/08 03:49:00;;;;;;;28.90;26.17;;;;;;;12.42;100.00;99905.72;4796254;29;20197;-89
2022/05/08 03:51:27;;;;;;;27.67;25.10;;;;;;;12.42;100.00;99898.47;4810504;29;20209;-89
2022/05/08 03:53:54;;;;;;;27.13;24.73;;;;;;;12.46;100.00;99901.56;4826459;29;20208;-90
2022/05/08 03:56:21;;;;;;;26.40;24.07;;;;;;;12.48;100.00;99900.25;4795471;29;20657;-89
2022/05/08 03:58:49;;;;;;;27.10;24.53;;;;;;;12.53;100.00;99905.78;4795309;29;20852;-89
2022/05/08 04:01:16;;;;;;;27.30;24.90;;;;;;;12.56;100.00;99907.19;4810355;29;20675;-90
2022/05/08 04:03:43;;;;;;;26.83;24.53;;;;;;;12.59;100.00;99906.75;4825031;29;20265;-89
2022/05/08 04:06:10;;;;;;;27.70;25.17;;;;;;;12.61;100.00;99908.16;4810679;29;20268;-91
2022/05/08 04:08:37;;;;;;;27.10;24.60;;;;;;;12.68;100.00;99910.78;4795198;29;20235;-91
2022/05/08 04:11:03;;;;;;;26.30;24.00;;;;;;;12.73;100.00;99908.22;4795625;29;20223;-90
2022/05/08 04:13:30;;;;;;;27.70;25.10;;;;;;;12.82;100.00;99906.88;4809841;29;20490;-91
2022/05/08 04:19:11;;;;;;;26.70;24.33;;;;;;;13.03;100.00;99921.66;4831147;24;20252;-89
2022/05/08 04:21:38;;;;;;;26.23;23.93;;;;;;;13.08;100.00;99916.44;4810068;29;20200;-89
2022/05/08 04:24:17;;;;;;;27.27;24.77;;;;;;;13.15;100.00;99926.09;4794989;29;20227;-90
2022/05/08 04:27:06;;;;;;;26.60;24.30;;;;;;;13.23;100.00;99924.94;4811789;24;20339;-90
2022/05/08 04:29:33;;;;;;;25.60;23.37;;;;;;;13.33;100.00;99921.69;4791857;29;20242;-91
2022/05/08 04:32:00;;;;;;;26.73;24.43;;;;;;;13.41;100.00;99924.88;4807882;29;20305;-91
2022/05/08 04:34:27;;;;;;;26.33;23.93;;;;;;;13.47;100.00;99926.63;4777117;29;20235;-91
2022/05/08 04:36:54;;;;;;;26.57;24.20;;;;;;;13.57;100.00;99926.91;4776932;29;20207;-91
2022/05/08 04:39:21;;;;;;;27.27;24.83;;;;;;;13.62;100.00;99929.69;4776649;29;20198;-91
2022/05/08 04:41:48;;;;;;;26.33;24.03;;;;;;;13.67;100.00;99929.81;4776961;29;20218;-91
2022/05/08 04:44:15;;;;;;;27.13;24.57;;;;;;;13.77;100.00;99925.72;4791635;29;20222;-92
2022/05/08 04:46:42;;;;;;;27.57;25.07;;;;;;;13.85;100.00;99925.41;4776404;29;20231;-92
2022/05/08 04:49:08;;;;;;;25.80;23.57;;;;;;;13.94;100.00;99927.50;4806414;29;20220;-92
2022/05/08 04:51:36;;;;;;;27.17;24.77;;;;;;;14.08;100.00;99931.63;4791367;29;20237;-91
2022/05/08 04:54:03;;;;;;;25.90;23.60;;;;;;;14.21;100.00;99927.03;4776932;29;20555;-91
2022/05/08 04:56:30;;;;;;;25.80;23.60;;;;;;;14.32;100.00;99926.19;4776445;29;20269;-92
2022/05/08 04:58:57;;;;;;;25.63;23.43;;;;;;;14.39;100.00;99932.31;4776475;29;20666;-92
2022/05/08 05:01:24;;;;;;;25.17;22.87;;;;;;;14.50;100.00;99934.16;4761645;29;20206;-91
2022/05/08 05:03:52;;;;;;;25.03;22.83;;;;;;;14.62;100.00;99931.44;4761638;29;20229;-91
2022/05/08 05:06:23;;;;;;;25.93;23.70;;;;;;;14.72;100.00;99926.25;4776774;29;20281;-91
2022/05/08 05:08:52;;;;;;;25.07;22.97;;;;;;;14.81;100.00;99933.72;4791438;29;20665;-91
2022/05/08 05:11:19;;;;;;;25.10;22.93;;;;;;;14.87;100.00;99940.88;4776263;29;20232;-92
2022/05/08 05:13:46;;;;;;;24.33;22.23;;;;;;;14.94;100.00;99936.13;4791317;29;20214;-91
2022/05/08 05:16:13;;;;;;;24.67;22.47;;;;;;;14.98;100.00;99941.88;4807017;29;20608;-91
2022/05/08 05:18:40;;;;;;;23.80;21.70;;;;;;;15.04;100.00;99940.91;4776748;29;20199;-91
2022/05/08 05:21:07;;;;;;;24.23;22.23;;;;;;;15.03;100.00;99941.97;4761451;29;20226;-92
2022/05/08 05:23:36;;;;;;;23.50;21.50;;;;;;;15.18;100.00;99949.53;4776022;29;20202;-92
2022/05/08 05:26:03;;;;;;;24.40;22.30;;;;;;;15.23;100.00;99946.94;4785623;29;20313;-91
2022/05/08 05:28:31;;;;;;;23.10;21.10;;;;;;;15.35;100.00;99955.81;4809140;29;20193;-91
2022/05/08 05:30:59;;;;;;;24.40;22.30;;;;;;;15.44;100.00;99957.84;4794062;29;20218;-91
2022/05/08 05:33:25;;;;;;;24.23;21.97;;;;;;;15.44;100.00;99960.53;4793969;29;20213;-91
2022/05/08 05:35:52;;;;;;;23.53;21.53;;;;;;;15.49;100.00;99962.50;4794059;29;20201;-92
2022/05/08 05:38:19;;;;;;;23.20;21.27;;;;;;;15.53;100.00;99969.13;4778858;29;20194;-91
2022/05/08 05:40:47;;;;;;;24.17;21.97;;;;;;;15.57;100.00;99966.75;4793963;29;20232;-92
2022/05/08 05:43:13;;;;;;;23.77;21.63;;;;;;;15.43;100.00;99966.19;4793835;29;20210;-91
2022/05/08 05:45:40;;;;;;;25.47;23.23;;;;;;;15.41;100.00;99971.84;4779211;29;20232;-91
2022/05/08 05:48:08;;;;;;;25.40;23.20;;;;;;;15.50;100.00;99971.44;4779263;29;20871;-91
2022/05/08 05:50:37;;;;;;;25.63;23.20;;;;;;;15.59;100.00;99967.31;4793821;29;20238;-90
2022/05/08 05:53:04;;;;;;;24.77;22.63;;;;;;;15.65;100.00;99967.16;4779197;29;20201;-91
2022/05/08 05:55:31;;;;;;;25.30;23.13;;;;;;;15.66;100.00;99963.41;4793767;29;20313;-91
2022/05/08 05:58:04;;;;;;;25.03;22.80;;;;;;;15.74;100.00;99975.66;4781368;29;20643;-91
2022/05/08 06:00:30;;;;;;;24.57;22.27;;;;;;;15.65;100.00;99969.84;4797122;29;20229;-91
2022/05/08 06:02:57;;;;;;;25.83;23.53;;;;;;;15.67;100.00;99967.75;4797128;29;20201;-90
2022/05/08 06:05:26;;;;;;;24.60;22.50;;;;;;;15.69;100.00;99968.31;4812356;29;20229;-91
2022/05/08 06:07:52;;;;;;;24.90;22.73;;;;;;;15.79;100.00;99971.19;4812242;29;20266;-91
2022/05/08 06:10:19;;;;;;;25.53;23.23;;;;;;;15.80;100.00;99974.69;4797255;29;20204;-90
2022/05/08 06:12:46;;;;;;;24.50;22.07;;;;;;;15.74;100.00;99976.50;4782341;29;20245;-91
2022/05/08 06:15:13;;;;;;;25.40;23.10;;;;;;;15.76;100.00;99970.84;4782309;29;20658;-91
2022/05/08 06:17:40;;;;;;;25.93;23.50;;;;;;;15.70;100.00;99969.13;4797276;29;20209;-90
2022/05/08 06:20:08;;;;;;;25.47;23.23;;;;;;;15.78;100.00;99980.34;4782457;29;20194;-91
2022/05/08 06:22:34;;;;;;;25.67;23.27;;;;;;;15.76;100.00;99978.97;4782133;29;20268;-90
2022/05/08 06:25:03;;;;;;;25.10;23.00;;;;;;;15.76;100.00;99981.66;4781933;29;20214;-90
2022/05/08 06:27:30;;;;;;;25.47;23.10;;;;;;;15.82;100.00;99983.34;4782092;29;20202;-90
2022/05/08 06:29:59;;;;;;;25.67;23.27;;;;;;;15.93;100.00;99984.34;4796427;29;20262;-90
2022/05/08 06:32:26;;;;;;;25.20;22.80;;;;;;;15.92;100.00;99986.22;4781902;29;20221;-90
2022/05/08 06:34:53;;;;;;;23.47;21.47;;;;;;;16.02;100.00;99986.41;4811717;29;20244;-88
2022/05/08 06:37:20;;;;;;;24.80;22.60;;;;;;;16.03;100.00;99990.75;4796761;29;20201;-90
2022/05/08 06:39:47;;;;;;;25.43;23.10;;;;;;;16.09;100.00;99989.78;4796972;29;20206;-90
2022/05/08 06:42:14;;;;;;;24.17;22.07;;;;;;;16.02;100.00;99985.56;4781893;29;20198;-90
2022/05/08 06:44:50;;;;;;;25.17;23.03;;;;;;;15.99;100.00;99991.47;4784120;29;20194;-90
2022/05/08 06:47:17;;;;;;;25.20;22.87;;;;;;;16.09;100.00;99989.78;4781642;29;20194;-90
2022/05/08 06:49:44;;;;;;;24.20;21.90;;;;;;;16.19;100.00;100002.63;4796485;29;20198;-90
2022/05/08 06:52:12;;;;;;;25.30;22.87;;;;;;;16.31;100.00;99992.53;4796277;29;20230;-90
2022/05/08 06:54:38;;;;;;;25.27;22.97;;;;;;;16.41;100.00;100000.78;4781489;29;20194;-92
2022/05/08 06:57:06;;;;;;;24.07;22.07;;;;;;;16.51;100.00;99998.22;4811360;29;20667;-93
2022/05/08 07:02:18;;;;;;;23.80;21.60;;;;;;;16.71;100.00;99998.53;4810877;29;20228;-89
2022/05/08 07:04:45;;;;;;;23.80;21.70;;;;;;;16.81;100.00;99999.72;4781507;29;20197;-89
2022/05/08 07:07:13;;;;;;;23.67;21.57;;;;;;;16.82;100.00;99999.47;4795702;29;20205;-89
2022/05/08 07:09:41;;;;;;;22.60;20.60;;;;;;;16.98;100.00;100004.00;4796172;29;20236;-89
2022/05/08 07:12:10;;;;;;;23.33;21.27;;;;;;;17.10;100.00;99999.28;4796149;29;20272;-89
2022/05/08 07:14:40;;;;;;;23.40;21.20;;;;;;;17.13;100.00;100011.47;4810685;29;20271;-90
2022/05/08 07:17:07;;;;;;;21.97;19.97;;;;;;;16.78;100.00;100002.94;4781706;29;20217;-89
2022/05/08 07:19:34;;;;;;;22.87;20.77;;;;;;;16.94;100.00;100000.16;4810529;29;20202;-89
2022/05/08 07:22:01;;;;;;;22.17;20.17;;;;;;;16.90;100.00;100009.03;4810986;29;20266;-88
2022/05/08 07:24:28;;;;;;;21.20;19.30;;;;;;;16.90;100.00;100003.63;4810504;29;20230;-88
2022/05/08 07:26:55;;;;;;;22.03;20.03;;;;;;;16.88;100.00;100009.31;4827056;29;20253;-89
2022/05/08 07:29:21;;;;;;;22.20;20.00;;;;;;;16.77;100.00;100015.66;4795309;29;20202;-89
2022/05/08 07:31:48;;;;;;;22.03;19.83;;;;;;;16.93;100.00;100011.25;4810560;29;20249;-89
2022/05/08 07:37:01;;;;;;;21.90;19.80;;;;;;;17.06;100.00;100024.41;4826704;29;20213;-90
2022/05/08 07:39:27;;;;;;;23.40;21.00;;;;;;;17.14;100.00;100024.78;4810457;29;20226;-90
2022/05/08 07:41:54;;;;;;;22.53;20.43;;;;;;;17.21;100.00;100027.31;4796060;29;20218;-91
2022/05/08 07:44:21;;;;;;;22.60;20.50;;;;;;;17.21;100.00;100030.00;4780945;29;20254;-91
2022/05/08 07:46:48;;;;;;;22.23;20.13;;;;;;;17.28;100.00;100027.09;4780831;29;20205;-90
2022/05/08 07:49:14;;;;;;;21.70;19.63;;;;;;;17.50;100.00;100030.56;4795758;29;20190;-89
2022/05/08 07:51:42;;;;;;;23.37;21.17;;;;;;;17.73;100.00;100030.31;4795379;29;20332;-91
2022/05/08 07:54:08;;;;;;;21.90;19.80;;;;;;;17.93;100.00;100035.91;4810619;29;20224;-90
2022/05/08 07:56:35;;;;;;;22.13;20.13;;;;;;;18.08;100.00;100029.81;4810376;29;20194;-90
2022/05/08 07:59:02;;;;;;;22.80;20.70;;;;;;;18.13;100.00;100032.56;4795321;29;20226;-90
2022/05/08 08:01:29;;;;;;;22.80;20.80;;;;;;;18.06;100.00;100029.25;4795664;29;20545;-90
2022/05/08 08:04:16;;;;;;;22.77;20.67;;;;;;;18.20;100.00;100030.44;4813287;29;20189;-90
2022/05/08 08:06:43;;;;;;;21.80;19.70;;;;;;;18.53;100.00;100042.91;4810488;29;20199;-89
2022/05/08 08:09:10;;;;;;;22.07;20.07;;;;;;;18.81;100.00;100042.53;4795591;29;20194;-89
2022/05/08 08:11:38;;;;;;;22.30;20.23;;;;;;;18.95;100.00;100039.34;4795104;29;20228;-89
2022/05/08 08:14:05;;;;;;;21.87;19.53;;;;;;;19.25;100.00;100040.31;4780408;29;20314;-89
2022/05/08 08:16:32;;;;;;;20.77;18.93;;;;;;;19.23;100.00;100044.34;4795092;29;20204;-89
2022/05/08 08:19:00;;;;;;;21.33;19.33;;;;;;;19.34;100.00;100044.13;4810115;29;20205;-89
2022/05/08 08:21:27;;;;;;;21.30;19.27;;;;;;;19.46;100.00;100034.94;4794287;29;20206;-89
2022/05/08 08:23:54;;;;;;;20.77;18.93;;;;;;;19.57;100.00;100047.47;4795088;29;20311;-89
2022/05/08 08:26:21;;;;;;;20.93;19.03;;;;;;;19.58;100.00;100047.22;4794821;29;20231;-88
2022/05/08 08:28:48;;;;;;;20.17;18.40;;;;;;;19.61;100.00;100037.69;4825927;29;20195;-89
2022/05/08 08:31:15;;;;;;;22.17;20.07;;;;;;;19.24;100.00;100049.53;4779725;29;20239;-89
2022/05/08 08:33:44;;;;;;;21.17;19.10;;;;;;;19.48;100.00;100051.81;4794982;29;20735;-89
2022/05/08 08:36:11;;;;;;;20.33;18.43;;;;;;;19.45;100.00;100050.44;4794964;29;20928;-88
2022/05/08 08:38:38;;;;;;;20.37;18.57;;;;;;;19.48;100.00;100051.81;4794541;29;20716;-89
2022/05/08 08:41:07;;;;;;;20.53;18.50;;;;;;;19.15;100.00;100055.72;4794668;29;20260;-89
2022/05/08 08:49:22;;;;;;;20.83;18.87;;;;;;;19.66;100.00;100054.84;4796867;29;20197;-89
2022/05/08 08:51:50;;;;;;;21.17;19.27;;;;;;;19.88;100.00;100051.88;4779690;29;20225;-89
2022/05/08 08:54:21;;;;;;;20.37;18.57;;;;;;;19.90;100.00;100057.88;4779487;29;20197;-89
2022/05/08 08:56:49;;;;;;;22.10;19.80;;;;;;;19.96;100.00;100067.69;4794734;29;20197;-88
2022/05/08 08:59:21;;;;;;;20.47;18.57;;;;;;;19.93;100.00;100065.47;4780924;29;20647;-88
2022/05/08 09:01:48;;;;;;;21.07;19.07;;;;;;;20.13;100.00;100059.25;4794251;29;20264;-88
2022/05/08 09:04:18;;;;;;;21.40;19.30;;;;;;;20.26;100.00;100057.88;4779566;29;20296;-89
2022/05/08 09:06:45;;;;;;;20.97;18.97;;;;;;;20.62;100.00;100063.03;4794537;29;20218;-87
2022/05/08 09:09:24;;;;;;;21.87;19.80;;;;;;;20.85;100.00;100056.22;4780140;29;20269;-89
2022/05/08 09:11:53;;;;;;;21.53;19.47;;;;;;;20.96;100.00;100068.69;4779477;29;20277;-88
2022/05/08 09:14:35;;;;;;;21.87;19.77;;;;;;;21.21;100.00;100073.25;4779470;29;20247;-88
2022/05/08 09:17:04;;;;;;;22.00;20.00;;;;;;;20.96;100.00;100062.41;4779582;29;20211;-88
2022/05/08 09:19:40;;;;;;;23.87;21.33;;;;;;;21.23;100.00;100062.09;4794125;29;20209;-89
2022/05/08 09:22:11;;;;;;;21.57;19.53;;;;;;;20.95;100.00;100067.03;4780383;29;20209;-89
2022/05/08 09:24:50;;;;;;;22.23;20.20;;;;;;;21.15;100.00;100052.56;4779299;29;20215;-88
2022/05/08 09:27:18;;;;;;;21.43;19.37;;;;;;;21.46;100.00;100056.78;4761517;29;20205;-88
2022/05/08 09:29:45;;;;;;;21.00;19.10;;;;;;;21.68;100.00;100053.69;4761461;29;20205;-88
2022/05/08 09:32:36;;;;;;;21.20;19.10;;;;;;;21.81;100.00;100050.31;4765696;29;20224;-89
2022/05/08 09:35:04;;;;;;;20.83;18.83;;;;;;;21.89;100.00;100052.44;4775910;29;20240;-88
2022/05/08 09:37:32;;;;;;;20.97;19.07;;;;;;;21.95;100.00;100048.59;4761346;29;20304;-88
2022/05/08 09:40:18;;;;;;;21.57;19.57;;;;;;;21.75;100.00;100059.63;4776010;29;20201;-88
2022/05/08 09:42:46;;;;;;;19.87;18.07;;;;;;;22.42;100.00;100052.56;4776161;29;20689;-88
2022/05/08 09:45:14;;;;;;;21.63;19.67;;;;;;;22.39;100.00;100050.44;4775821;29;20302;-87
2022/05/08 09:47:42;;;;;;;21.40;19.40;;;;;;;22.62;100.00;100048.84;4761135;29;20998;-88
2022/05/08 09:50:10;;;;;;;20.40;18.67;;;;;;;23.04;100.00;100048.13;4776042;29;20191;-88
2022/05/08 09:52:41;;;;;;;21.77;19.73;;;;;;;22.76;100.00;100045.19;4775966;29;20212;-88
2022/05/08 09:55:09;;;;;;;21.73;19.73;;;;;;;22.97;100.00;100045.75;4791224;29;20224;-88
2022/05/08 09:57:39;;;;;;;20.93;18.90;;;;;;;22.87;100.00;100036.84;4776071;29;20616;-88
2022/05/08 10:00:12;;;;;;;20.27;18.47;;;;;;;23.63;98.95;100036.72;4791437;29;20233;-84
2022/05/08 10:02:42;;;;;;;20.57;18.57;;;;;;;24.00;94.58;100039.44;4790734;29;20217;-87
2022/05/08 10:05:09;;;;;;;19.45;17.75;;;;;;;24.11;96.26;100038.16;4761154;29;20301;-87
2022/05/08 10:07:37;;;;;;;20.75;18.77;;;;;;;24.23;90.03;100043.19;4760762;29;20267;-88
2022/05/08 10:15:43;;;;;;;20.30;18.35;;;;;;;23.67;90.37;100033.09;4793212;29;20211;-88
2022/05/08 10:18:28;;;;;;;21.95;19.77;;;;;;;23.67;88.34;100033.09;4790319;29;20248;-87
2022/05/08 10:21:02;;;;;;;21.10;19.10;;;;;;;23.86;87.22;100026.78;4776007;29;20290;-88
2022/05/08 10:23:35;;;;;;;20.20;18.15;;;;;;;24.02;89.49;100030.94;4805955;29;20243;-88
2022/05/08 10:26:22;;;;;;;19.08;17.30;;;;;;;23.80;85.28;100027.97;4784657;29;20237;-88
2022/05/08 10:29:14;;;;;;;21.58;19.50;;;;;;;23.24;89.50;100023.25;4793438;29;20186;-88
2022/05/08 10:31:42;;;;;;;19.80;18.10;;;;;;;24.03;84.76;100025.13;4778877;29;20197;-88
2022/05/08 10:34:10;;;;;;;19.27;17.67;;;;;;;23.63;87.99;100017.56;4808313;29;20254;-87
2022/05/08 10:36:37;;;;;;;20.65;18.75;;;;;;;23.75;91.25;100022.59;4824045;29;20198;-88
2022/05/08 10:39:35;;;;;;;19.67;17.67;;;;;;;24.14;87.57;100021.13;4808274;29;20196;-87
2022/05/08 10:42:02;;;;;;;19.95;18.25;;;;;;;24.02;85.54;100018.06;4793319;29;20222;-87
2022/05/08 10:44:37;;;;;;;18.48;16.73;;;;;;;23.84;87.18;100027.09;4825386;29;20286;-88
2022/05/08 10:47:31;;;;;;;18.02;16.42;;;;;;;24.29;80.26;100022.00;4796931;29;20190;-87
2022/05/08 10:49:59;;;;;;;17.60;16.10;;;;;;;24.61;82.97;100024.69;4827619;29;20242;-87
2022/05/08 10:52:26;;;;;;;18.90;17.20;;;;;;;24.24;79.72;100022.09;4811314;29;20230;-87
2022/05/08 10:54:56;;;;;;;18.55;16.73;;;;;;;24.19;79.52;100023.00;4796515;29;20190;-87
2022/05/08 10:57:31;;;;;;;18.38;16.75;;;;;;;24.25;80.30;100029.19;4827026;29;20178;-87
2022/05/08 10:59:59;;;;;;;17.33;15.90;;;;;;;23.69;80.95;100017.22;4796472;29;20192;-88
2022/05/08 11:02:52;;;;;;;16.48;15.07;;;;;;;23.87;80.38;100018.28;4795978;29;20202;-87
2022/05/08 11:05:27;;;;;;;15.85;14.55;;;;;;;23.43;77.30;100018.63;4796468;29;20651;-87
2022/05/08 11:08:00;;;;;;;16.88;15.27;;;;;;;23.18;79.76;100016.25;4796345;29;20186;-88
2022/05/08 11:10:31;;;;;;;17.00;15.35;;;;;;;23.22;84.57;100011.84;4811183;29;20198;-87
2022/05/08 11:13:17;;;;;;;17.15;15.55;;;;;;;23.04;75.36;100012.63;4781522;29;20232;-88
2022/05/08 11:15:48;;;;;;;15.45;14.05;;;;;;;23.37;80.87;100017.09;4796833;29;20178;-87
2022/05/08 11:18:20;;;;;;;14.50;13.07;;;;;;;23.36;77.96;100012.72;4796058;29;20285;-88
2022/05/08 11:20:53;;;;;;;13.63;12.47;;;;;;;23.54;80.46;100016.59;4810956;29;20196;-88
2022/05/08 11:23:21;;;;;;;11.77;10.82;;;;;;;23.97;66.25;100011.84;4796162;29;20194;-88
2022/05/08 11:25:53;;;;;;;11.50;10.40;;;;;;;24.13;68.09;100005.81;4795909;29;20238;-88
2022/05/08 11:28:25;;;;;;;14.70;13.48;;;;;;;24.31;67.52;100003.38;4795964;29;20208;-87
2022/05/08 11:30:54;;;;;;;13.88;12.57;;;;;;;25.15;64.75;100001.97;4826912;29;20228;-88
2022/05/08 11:36:33;;;;;;;13.75;12.65;;;;;;;24.89;63.20;100012.69;4813019;29;20644;-88
2022/05/08 11:39:04;;;;;;;12.35;11.30;;;;;;;25.02;63.64;100012.97;4795910;29;20229;-88
2022/05/08 11:41:36;;;;;;;12.68;11.48;;;;;;;24.87;63.83;100003.16;4795440;29;20199;-87
2022/05/08 11:44:15;;;;;;;13.27;12.27;;;;;;;24.78;60.50;100002.19;4795754;29;20914;-87
2022/05/08 11:46:47;;;;;;;12.30;11.25;;;;;;;24.25;61.77;99999.91;4795568;29;20198;-87